Terminal Aerodrome Forecast
Issued by NWS

Home | Current Version | Previous Version | Graphics & Text | Print | Product List | Glossary On
Versions: 1 2 3 4 5 6 7 8 9 10 11 12 13 14 15 16 17 18
000
FTUS43 KICT 261850 AAA
TAFHUT
TAF AMD
KHUT 261850Z 2619/2718 34015G23KT P6SM BKN035 BKN100
     FM262000 34015G23KT P6SM FEW040 SCT080
     FM270100 33007KT P6SM FEW250
     FM271000 26005KT P6SM FEW200
     FM271400 14010KT P6SM BKN110=

USA.gov is the U.S. government's official web portal to all federal, state and local government web resources and services.